Flight Track Log - Related Links

Times and Time Zones

All times are in EDT time to prevent confusion due to time zone crossing. See the CTL22 flight status page for this flight to view local times or setup timezone preferences in your user account.


Time Position Orientation Groundspeed Altitude Reporting Facility
EDT Latitude Longitude Course Direction KTS MPH feet Rate Location/Type
Tue 08:35:15 PM 42.7644 -85.5317 180° South 160 184 2,900  Level Chicago Center
Tue 08:36:17 PM 42.7156 -85.5256 175° South 173 199 3,000 48 Climbing Chicago Center
Tue 08:37:19 PM 42.6681 -85.5169 172° South 174 200 3,000  Level Chicago Center
Tue 08:38:21 PM 42.6219 -85.4958 161° South 174 200 3,000 48 Level Chicago Center
Tue 08:39:00 PM 42.6531 -85.5330 182° South  Level Estimated
Tue 08:39:23 PM 42.5661 -85.4742 164° South 173 199 3,100  Level Chicago Center
Tue 08:40:00 PM 42.6151 -85.5331 180° South  Level FlightAware Approximate
Tue 08:40:25 PM 42.5208 -85.4583 166° South 169 194 3,000  Level Chicago Center
Tue 08:41:27 PM 42.4769 -85.4467 169° South 163 188 3,100  Climbing Chicago Center
Tue 08:42:29 PM 42.4331 -85.4397 173° South 159 183 3,000 -48 Descending Chicago Center
Tue 08:43:31 PM 42.3892 -85.4333 174° South 158 182 3,000 48 Level Chicago Center
Tue 08:44:33 PM 42.3467 -85.4275 174° South 156 180 3,100  Climbing Chicago Center
Tue 08:45:34 PM 42.2964 -85.4286 181° South 152 175 3,000 -49 Descending Chicago Center
Tue 08:46:36 PM 42.2603 -85.4400 193° South 145 167 3,000  Level Chicago Center
Tue 08:47:38 PM 42.2200 -85.4539 194° South 148 170 3,000 48 Level Chicago Center
Tue 08:48:40 PM 42.1797 -85.4683 195° South 149 171 3,100 -48 Climbing Chicago Center
Tue 08:49:42 PM 42.1294 -85.4639 176° South 151 174 2,900 -194 Descending Chicago Center
Tue 08:50:44 PM 42.0911 -85.4675 184° South 153 176 2,700 -48 Descending Chicago Center
Tue 08:51:46 PM 42.0958 -85.5156 278° West 145 167 2,800 48 Climbing Chicago Center
Tue 08:52:48 PM 42.1342 -85.5303 344° North 148 170 2,800 -341 Level Chicago Center
Tue 08:53:49 PM 42.1706 -85.5383 351° North 141 162 2,100 -634 Descending Chicago Center
Tue 08:54:51 PM 42.1992 -85.5450 350° North 123 142 1,500 -581 Descending Chicago Center

Login

Don't have an account? Register now (free) for customized features, flight alerts, and more!